AirNav   Bose ProFlight Series 2 Headset
 
 1438 users online  

IA67 Cass County Memorial Hospital Heliport
Atlantic, Iowa, USA

GOING TO ATLANTIC?


FAA INFORMATION EFFECTIVE 02 JANUARY 2020

Location

FAA Identifier: IA67
Lat/Long: 41-24-01.5700N 094-59-24.0200W
41-24.026167N 094-59.400333W
41.4004361,-94.9900056
(estimated)
Elevation: 1250 ft. / 381 m (estimated)
Variation: 05E (1990)
Time zone: UTC -6 (UTC -5 during Daylight Saving Time)
Zip code: 50022

Heliport Operations

Heliport use: Private use, MEDICAL USE.
Activation date: 02/1992
Control tower: no
ARTCC: MINNEAPOLIS CENTER
FSS: FORT DODGE FLIGHT SERVICE STATION
Attendance: CONTINUOUS
Wind indicator: lighted
Segmented circle: no
Lights: FOR LIGHTS CALL 712-243-3250.

Heliport Communications

WX AWOS-3 at AIO (2.7 nm W): 127.825 (712-243-2748)
WX AWOS-3 at ADU (18 nm N): 118.075 (712-563-2101)
WX AWOS-3 at HNR (19 nm NW): 118.325 (712-744-4400)

Nearby radio navigation aids

VOR radial/distance  VOR name  Freq  Var
OVRr059/36.5OMAHA VORTAC116.3008E

Heliport Services

Runway Information

Helipad H1

Dimensions: 58 x 58 ft. / 18 x 18 m
CIRCULAR PAD.
Surface: concrete
Runway edge lights: PERI
AND PRKG LOT LGTS.
Latitude: 41-24.026167N
Longitude: 094-59.400333W
Elevation: 1250.0 ft.
Traffic pattern: leftleft

Heliport Ownership and Management from official FAA records

Ownership: Publicly-owned
Owner: CASS COUNTY
1501 E 10TH
ATLANTIC, IA 50022
Phone 712-243-3250
Manager: DIRECTOR OF PLANT OPERATION
1501 E 10TH
ATLANTIC, IA 50022
Phone 712-243-3250

Additional Remarks

A52-H1 PLINES 20O YARDS SE OF PAD WITH RED LIGHTS AND RADIO TOWER ON TOP OF HOSPITAL WITH RED LIGHTS.
OWNER DESIRES HELIPORT NOT BE CHARTED.
FOR CD CTC MINNEAPOLIS ARTCC AT 651-463-5588.

Instrument Procedures

There are no published instrument procedures at IA67.

Some nearby airports with instrument procedures:

KAIO - Atlantic Municipal Airport (3 nm W)
KADU - Audubon County Airport (18 nm N)
KHNR - Harlan Municipal Airport (19 nm NW)
KGFZ - Greenfield Municipal Airport (25 nm E)
KRDK - Red Oak Municipal Airport (26 nm SW)
 
Loc | Ops | Rwys | IFR | FBO | Links
Com | Nav | Svcs | Stats | Notes
Area around IA67 (Cass County Memorial Hospital Heliport)
 
Road maps at: MapQuest Bing Google
 
Aerial photo
No photo
 
Sectional chart

 
Airport distance calculator
Flying to Cass County Memorial Hospital Heliport? Find the distance to fly.

From to IA67

Sunrise and sunset
Times for 22-Jan-2020
 Local
(UTC-6)
 Zulu
(UTC)
Morning civil twilight07:1113:11
Sunrise07:4113:41
Sunset17:2223:22
Evening civil twilight17:5223:52

Current date and time
Zulu (UTC)  22-Jan-2020 21:52:59
Local (UTC-6)  22-Jan-2020 15:52:59
 
METAR
KAIO 
3nm W 
222135Z AUTO 17010KT 1 1/2SM -UP CLR 01/01 A2984 RMK AO2
KADU 
18nm N 
222135Z AUTO 17008KT 1SM -SN OVC007 01/M01 A2985 RMK AO2
KHNR 
19nm NW 
222135Z AUTO 18009KT 1 3/4SM -SN BKN006 00/00 A2983 RMK AO2
TAF
KOMA 
41nm W 
221742Z 2218/2318 16010KT 1SM -SN OVC005 FM230000 VRB05KT 1SM BR VCFG OVC004 FM230600 VRB05KT 1SM BR VCSH OVC004 FM230900 33006KT 1SM -SN OVC005
KOFF 
45nm W 
221800Z 2218/2324 13009KT 3200 -SN BR OVC003 620039 QNH2983INS BECMG 2223/2224 VRB06KT 9000 -SN BR OVC007 620079 QNH2983INS BECMG 2303/2304 VRB06KT 9000 BR OVC007 620079 QNH2990INS BECMG 2307/2308 VRB06KT 8000 -SN BR OVC007 620079 QNH2999INS BECMG 2313/2314 33009KT 6000 -SN OVC007 620079 QNH2999INS TX02/2222Z TNM01/2312Z
NOTAMs
Click for the latest NOTAMs
NOTAMs are issued by the DoD/FAA and will open in a separate window not controlled by AirNav.

 

 
 

Would you like to see your business listed on this page?

 If your business provides an interesting product or service to pilots, flight crews, aircraft, or users of the Cass County Memorial Hospital Heliport, you should consider listing it here.  To start the listing process, click on the button below
 
Add a business
 

Other Pages about Cass County Memorial Hospital Heliport

Update a link
 
Copyright © AirNav, LLC. All rights reserved. Privacy Policy  Contact